sensor_id;sensor_type;location;lat;lon;timestamp;P1;durP1;ratioP1;P2;durP2;ratioP2
75892;SDS011;64572;50.950;3.676;2022-12-26T00:00:13;27.02;;;14.65;;
75892;SDS011;64572;50.950;3.676;2022-12-26T00:02:40;23.85;;;14.32;;
75892;SDS011;64572;50.950;3.676;2022-12-26T00:05:06;24.75;;;15.10;;
75892;SDS011;64572;50.950;3.676;2022-12-26T00:07:31;26.40;;;15.32;;
75892;SDS011;64572;50.950;3.676;2022-12-26T00:09:57;27.58;;;15.05;;
75892;SDS011;64572;50.950;3.676;2022-12-26T00:12:23;26.58;;;14.60;;
75892;SDS011;64572;50.950;3.676;2022-12-26T00:14:49;24.50;;;14.48;;
75892;SDS011;64572;50.950;3.676;2022-12-26T00:17:14;24.52;;;15.00;;
75892;SDS011;64572;50.950;3.676;2022-12-26T00:19:40;24.30;;;13.63;;
75892;SDS011;64572;50.950;3.676;2022-12-26T00:22:05;25.48;;;14.20;;
75892;SDS011;64572;50.950;3.676;2022-12-26T00:24:31;29.17;;;15.88;;
75892;SDS011;64572;50.950;3.676;2022-12-26T00:26:57;26.02;;;15.20;;
75892;SDS011;64572;50.950;3.676;2022-12-26T00:29:22;24.05;;;12.93;;
75892;SDS011;64572;50.950;3.676;2022-12-26T00:31:48;24.90;;;14.77;;
75892;SDS011;64572;50.950;3.676;2022-12-26T00:34:14;24.08;;;14.60;;
75892;SDS011;64572;50.950;3.676;2022-12-26T00:36:40;27.08;;;15.25;;
75892;SDS011;64572;50.950;3.676;2022-12-26T00:39:05;26.50;;;14.88;;
75892;SDS011;64572;50.950;3.676;2022-12-26T00:41:31;24.80;;;15.02;;
75892;SDS011;64572;50.950;3.676;2022-12-26T00:43:57;26.27;;;15.55;;
75892;SDS011;64572;50.950;3.676;2022-12-26T00:46:23;26.10;;;14.45;;
75892;SDS011;64572;50.950;3.676;2022-12-26T00:48:50;25.65;;;14.52;;
75892;SDS011;64572;50.950;3.676;2022-12-26T00:51:16;25.88;;;14.40;;
75892;SDS011;64572;50.950;3.676;2022-12-26T00:53:41;25.60;;;14.07;;
75892;SDS011;64572;50.950;3.676;2022-12-26T00:56:07;25.30;;;14.23;;
75892;SDS011;64572;50.950;3.676;2022-12-26T00:58:33;26.50;;;14.65;;
75892;SDS011;64572;50.950;3.676;2022-12-26T01:01:06;26.50;;;14.20;;
75892;SDS011;64572;50.950;3.676;2022-12-26T01:03:32;25.92;;;13.27;;
75892;SDS011;64572;50.950;3.676;2022-12-26T01:06:00;22.88;;;12.48;;
75892;SDS011;64572;50.950;3.676;2022-12-26T01:08:27;24.23;;;13.57;;
75892;SDS011;64572;50.950;3.676;2022-12-26T01:10:52;26.63;;;13.55;;
75892;SDS011;64572;50.950;3.676;2022-12-26T01:13:18;23.30;;;12.57;;
75892;SDS011;64572;50.950;3.676;2022-12-26T01:15:48;22.40;;;12.82;;
75892;SDS011;64572;50.950;3.676;2022-12-26T01:18:14;19.73;;;12.27;;
75892;SDS011;64572;50.950;3.676;2022-12-26T01:20:40;20.33;;;12.43;;
75892;SDS011;64572;50.950;3.676;2022-12-26T01:23:06;19.55;;;11.10;;
75892;SDS011;64572;50.950;3.676;2022-12-26T01:25:31;22.13;;;11.98;;
75892;SDS011;64572;50.950;3.676;2022-12-26T01:27:57;20.85;;;11.07;;
75892;SDS011;64572;50.950;3.676;2022-12-26T01:30:23;21.63;;;12.15;;
75892;SDS011;64572;50.950;3.676;2022-12-26T01:32:48;20.60;;;11.55;;
75892;SDS011;64572;50.950;3.676;2022-12-26T01:35:14;20.15;;;11.27;;
75892;SDS011;64572;50.950;3.676;2022-12-26T01:37:40;19.90;;;11.45;;
75892;SDS011;64572;50.950;3.676;2022-12-26T01:40:06;21.08;;;11.38;;
75892;SDS011;64572;50.950;3.676;2022-12-26T01:42:36;19.65;;;10.90;;
75892;SDS011;64572;50.950;3.676;2022-12-26T01:45:16;18.63;;;10.93;;
75892;SDS011;64572;50.950;3.676;2022-12-26T01:47:49;18.63;;;10.98;;
75892;SDS011;64572;50.950;3.676;2022-12-26T01:51:01;19.23;;;10.32;;
75892;SDS011;64572;50.950;3.676;2022-12-26T01:53:12;19.10;;;10.43;;
75892;SDS011;64572;50.950;3.676;2022-12-26T01:55:42;17.77;;;10.35;;
75892;SDS011;64572;50.950;3.676;2022-12-26T01:58:14;18.65;;;10.40;;
75892;SDS011;64572;50.950;3.676;2022-12-26T02:00:45;17.77;;;10.70;;
75892;SDS011;64572;50.950;3.676;2022-12-26T02:03:12;16.92;;;10.45;;
75892;SDS011;64572;50.950;3.676;2022-12-26T02:05:56;18.00;;;9.35;;
75892;SDS011;64572;50.950;3.676;2022-12-26T02:13:34;17.88;;;10.68;;
75892;SDS011;64572;50.950;3.676;2022-12-26T02:16:02;18.42;;;8.90;;
75892;SDS011;64572;50.950;3.676;2022-12-26T02:18:28;18.00;;;9.70;;
75892;SDS011;64572;50.950;3.676;2022-12-26T02:28:55;16.73;;;8.70;;
75892;SDS011;64572;50.950;3.676;2022-12-26T02:34:20;18.52;;;8.32;;
75892;SDS011;64572;50.950;3.676;2022-12-26T02:48:27;14.90;;;6.68;;
75892;SDS011;64572;50.950;3.676;2022-12-26T02:54:27;14.95;;;7.93;;
75892;SDS011;64572;50.950;3.676;2022-12-26T02:57:23;15.30;;;8.32;;
75892;SDS011;64572;50.950;3.676;2022-12-26T03:00:11;16.65;;;8.55;;
75892;SDS011;64572;50.950;3.676;2022-12-26T03:03:09;17.35;;;9.43;;
75892;SDS011;64572;50.950;3.676;2022-12-26T03:06:04;16.33;;;9.45;;
75892;SDS011;64572;50.950;3.676;2022-12-26T03:11:59;16.55;;;9.20;;
75892;SDS011;64572;50.950;3.676;2022-12-26T03:15:00;17.65;;;9.15;;
75892;SDS011;64572;50.950;3.676;2022-12-26T03:28:32;14.43;;;7.60;;
75892;SDS011;64572;50.950;3.676;2022-12-26T03:30:59;14.80;;;7.63;;
75892;SDS011;64572;50.950;3.676;2022-12-26T03:33:30;18.08;;;7.97;;
75892;SDS011;64572;50.950;3.676;2022-12-26T03:39:18;13.70;;;7.65;;
75892;SDS011;64572;50.950;3.676;2022-12-26T03:42:12;16.50;;;8.65;;
75892;SDS011;64572;50.950;3.676;2022-12-26T03:48:40;16.90;;;9.18;;
75892;SDS011;64572;50.950;3.676;2022-12-26T03:54:45;15.73;;;8.00;;
75892;SDS011;64572;50.950;3.676;2022-12-26T03:58:09;15.10;;;8.43;;
75892;SDS011;64572;50.950;3.676;2022-12-26T04:00:47;14.95;;;8.73;;
75892;SDS011;64572;50.950;3.676;2022-12-26T04:06:23;13.63;;;7.13;;
75892;SDS011;64572;50.950;3.676;2022-12-26T04:09:12;14.52;;;7.63;;
75892;SDS011;64572;50.950;3.676;2022-12-26T04:12:02;12.35;;;6.47;;
75892;SDS011;64572;50.950;3.676;2022-12-26T04:14:53;13.25;;;6.72;;
75892;SDS011;64572;50.950;3.676;2022-12-26T04:17:49;13.82;;;6.90;;
75892;SDS011;64572;50.950;3.676;2022-12-26T04:23:14;12.20;;;5.97;;
75892;SDS011;64572;50.950;3.676;2022-12-26T04:28:52;12.48;;;6.07;;
75892;SDS011;64572;50.950;3.676;2022-12-26T04:31:39;14.88;;;6.47;;
75892;SDS011;64572;50.950;3.676;2022-12-26T04:34:32;14.00;;;6.68;;
75892;SDS011;64572;50.950;3.676;2022-12-26T04:37:26;10.73;;;5.53;;
75892;SDS011;64572;50.950;3.676;2022-12-26T04:40:14;14.90;;;6.90;;
75892;SDS011;64572;50.950;3.676;2022-12-26T04:43:03;12.95;;;6.95;;
75892;SDS011;64572;50.950;3.676;2022-12-26T04:45:49;13.00;;;6.18;;
75892;SDS011;64572;50.950;3.676;2022-12-26T04:48:15;13.25;;;6.72;;
75892;SDS011;64572;50.950;3.676;2022-12-26T04:51:00;12.93;;;6.90;;
75892;SDS011;64572;50.950;3.676;2022-12-26T04:53:25;14.82;;;7.03;;
75892;SDS011;64572;50.950;3.676;2022-12-26T04:55:51;12.73;;;7.15;;
75892;SDS011;64572;50.950;3.676;2022-12-26T04:58:17;13.18;;;6.40;;
75892;SDS011;64572;50.950;3.676;2022-12-26T05:00:42;13.07;;;6.40;;
75892;SDS011;64572;50.950;3.676;2022-12-26T05:03:12;13.25;;;6.38;;
75892;SDS011;64572;50.950;3.676;2022-12-26T05:05:56;16.40;;;6.32;;
75892;SDS011;64572;50.950;3.676;2022-12-26T05:08:42;13.48;;;6.35;;
75892;SDS011;64572;50.950;3.676;2022-12-26T05:11:27;13.32;;;6.25;;
75892;SDS011;64572;50.950;3.676;2022-12-26T05:13:55;14.65;;;6.38;;
75892;SDS011;64572;50.950;3.676;2022-12-26T05:16:22;15.47;;;7.00;;
75892;SDS011;64572;50.950;3.676;2022-12-26T05:19:09;16.27;;;6.82;;
75892;SDS011;64572;50.950;3.676;2022-12-26T05:21:55;14.40;;;7.05;;
75892;SDS011;64572;50.950;3.676;2022-12-26T05:24:40;12.35;;;6.70;;
75892;SDS011;64572;50.950;3.676;2022-12-26T05:27:25;13.93;;;6.65;;
75892;SDS011;64572;50.950;3.676;2022-12-26T05:30:19;11.38;;;5.75;;
75892;SDS011;64572;50.950;3.676;2022-12-26T05:32:45;14.38;;;6.10;;
75892;SDS011;64572;50.950;3.676;2022-12-26T05:35:30;12.80;;;6.38;;
75892;SDS011;64572;50.950;3.676;2022-12-26T05:37:56;15.02;;;6.18;;
75892;SDS011;64572;50.950;3.676;2022-12-26T05:40:22;13.38;;;6.38;;
75892;SDS011;64572;50.950;3.676;2022-12-26T05:42:48;12.77;;;6.00;;
75892;SDS011;64572;50.950;3.676;2022-12-26T05:45:13;12.07;;;5.95;;
75892;SDS011;64572;50.950;3.676;2022-12-26T05:47:39;15.68;;;5.95;;
75892;SDS011;64572;50.950;3.676;2022-12-26T05:50:05;11.68;;;6.03;;
75892;SDS011;64572;50.950;3.676;2022-12-26T05:52:31;11.90;;;5.72;;
75892;SDS011;64572;50.950;3.676;2022-12-26T05:54:56;12.32;;;6.10;;
75892;SDS011;64572;50.950;3.676;2022-12-26T05:57:22;12.15;;;6.20;;
75892;SDS011;64572;50.950;3.676;2022-12-26T05:59:48;11.27;;;5.07;;
75892;SDS011;64572;50.950;3.676;2022-12-26T06:02:13;12.07;;;5.25;;
75892;SDS011;64572;50.950;3.676;2022-12-26T06:04:39;12.20;;;5.65;;
75892;SDS011;64572;50.950;3.676;2022-12-26T06:07:05;12.32;;;5.57;;
75892;SDS011;64572;50.950;3.676;2022-12-26T06:09:30;11.07;;;5.00;;
75892;SDS011;64572;50.950;3.676;2022-12-26T06:11:56;9.75;;;4.78;;
75892;SDS011;64572;50.950;3.676;2022-12-26T06:14:22;16.00;;;5.43;;
75892;SDS011;64572;50.950;3.676;2022-12-26T06:16:48;11.43;;;5.15;;
75892;SDS011;64572;50.950;3.676;2022-12-26T06:19:13;12.32;;;4.65;;
75892;SDS011;64572;50.950;3.676;2022-12-26T06:21:39;14.93;;;5.45;;
75892;SDS011;64572;50.950;3.676;2022-12-26T06:24:05;9.23;;;3.95;;
75892;SDS011;64572;50.950;3.676;2022-12-26T06:26:31;11.20;;;4.90;;
75892;SDS011;64572;50.950;3.676;2022-12-26T06:28:56;11.75;;;4.45;;
75892;SDS011;64572;50.950;3.676;2022-12-26T06:31:22;10.00;;;3.88;;
75892;SDS011;64572;50.950;3.676;2022-12-26T06:33:49;9.70;;;3.90;;
75892;SDS011;64572;50.950;3.676;2022-12-26T06:36:22;13.07;;;4.60;;
75892;SDS011;64572;50.950;3.676;2022-12-26T06:38:49;10.05;;;4.07;;
75892;SDS011;64572;50.950;3.676;2022-12-26T06:41:17;8.02;;;3.72;;
75892;SDS011;64572;50.950;3.676;2022-12-26T06:43:44;9.32;;;4.00;;
75892;SDS011;64572;50.950;3.676;2022-12-26T06:46:14;9.20;;;3.15;;
75892;SDS011;64572;50.950;3.676;2022-12-26T06:48:44;8.02;;;3.30;;
75892;SDS011;64572;50.950;3.676;2022-12-26T06:51:12;9.68;;;3.60;;
75892;SDS011;64572;50.950;3.676;2022-12-26T06:53:39;11.02;;;3.65;;
75892;SDS011;64572;50.950;3.676;2022-12-26T06:56:06;9.63;;;3.20;;
75892;SDS011;64572;50.950;3.676;2022-12-26T06:58:34;5.03;;;2.42;;
75892;SDS011;64572;50.950;3.676;2022-12-26T07:01:06;10.07;;;3.20;;
75892;SDS011;64572;50.950;3.676;2022-12-26T07:03:36;10.68;;;3.20;;
75892;SDS011;64572;50.950;3.676;2022-12-26T07:06:03;12.70;;;3.45;;
75892;SDS011;64572;50.950;3.676;2022-12-26T07:10:56;9.40;;;2.65;;
75892;SDS011;64572;50.950;3.676;2022-12-26T07:13:22;13.27;;;2.90;;
75892;SDS011;64572;50.950;3.676;2022-12-26T07:15:48;10.82;;;2.70;;
75892;SDS011;64572;50.950;3.676;2022-12-26T07:18:13;11.13;;;2.47;;
75892;SDS011;64572;50.950;3.676;2022-12-26T07:20:39;10.20;;;2.63;;
75892;SDS011;64572;50.950;3.676;2022-12-26T07:23:04;9.05;;;2.55;;
75892;SDS011;64572;50.950;3.676;2022-12-26T07:25:30;10.80;;;2.58;;
75892;SDS011;64572;50.950;3.676;2022-12-26T07:27:56;10.57;;;2.38;;
75892;SDS011;64572;50.950;3.676;2022-12-26T07:30:22;9.35;;;2.78;;
75892;SDS011;64572;50.950;3.676;2022-12-26T07:32:47;5.53;;;2.13;;
75892;SDS011;64572;50.950;3.676;2022-12-26T07:35:13;7.82;;;2.35;;
75892;SDS011;64572;50.950;3.676;2022-12-26T07:37:39;9.32;;;2.38;;
75892;SDS011;64572;50.950;3.676;2022-12-26T07:40:04;5.95;;;2.20;;
75892;SDS011;64572;50.950;3.676;2022-12-26T07:42:30;9.07;;;2.60;;
75892;SDS011;64572;50.950;3.676;2022-12-26T07:44:56;11.05;;;2.80;;
75892;SDS011;64572;50.950;3.676;2022-12-26T07:47:22;16.85;;;2.50;;
75892;SDS011;64572;50.950;3.676;2022-12-26T07:49:47;14.55;;;2.40;;
75892;SDS011;64572;50.950;3.676;2022-12-26T07:52:13;8.98;;;2.42;;
75892;SDS011;64572;50.950;3.676;2022-12-26T07:54:39;13.55;;;2.70;;
75892;SDS011;64572;50.950;3.676;2022-12-26T07:57:04;10.32;;;2.80;;
75892;SDS011;64572;50.950;3.676;2022-12-26T07:59:30;11.65;;;2.72;;
75892;SDS011;64572;50.950;3.676;2022-12-26T08:01:56;14.07;;;2.97;;
75892;SDS011;64572;50.950;3.676;2022-12-26T08:04:23;10.80;;;2.53;;
75892;SDS011;64572;50.950;3.676;2022-12-26T08:06:49;14.95;;;2.58;;
75892;SDS011;64572;50.950;3.676;2022-12-26T08:09:15;9.70;;;2.53;;
75892;SDS011;64572;50.950;3.676;2022-12-26T08:11:41;11.85;;;2.53;;
75892;SDS011;64572;50.950;3.676;2022-12-26T08:14:08;11.15;;;2.60;;
75892;SDS011;64572;50.950;3.676;2022-12-26T08:16:35;11.82;;;2.80;;
75892;SDS011;64572;50.950;3.676;2022-12-26T08:19:01;9.73;;;2.63;;
75892;SDS011;64572;50.950;3.676;2022-12-26T08:21:28;11.00;;;2.97;;
75892;SDS011;64572;50.950;3.676;2022-12-26T08:23:54;11.25;;;3.03;;
75892;SDS011;64572;50.950;3.676;2022-12-26T08:26:19;8.52;;;2.60;;
75892;SDS011;64572;50.950;3.676;2022-12-26T08:28:47;13.30;;;3.03;;
75892;SDS011;64572;50.950;3.676;2022-12-26T08:31:14;15.13;;;3.00;;
75892;SDS011;64572;50.950;3.676;2022-12-26T08:33:40;15.05;;;3.20;;
75892;SDS011;64572;50.950;3.676;2022-12-26T08:36:07;11.70;;;2.72;;
75892;SDS011;64572;50.950;3.676;2022-12-26T08:41:00;9.15;;;2.72;;
75892;SDS011;64572;50.950;3.676;2022-12-26T08:43:26;9.88;;;2.72;;
75892;SDS011;64572;50.950;3.676;2022-12-26T08:46:08;14.30;;;2.83;;
75892;SDS011;64572;50.950;3.676;2022-12-26T08:48:36;15.60;;;3.78;;
75892;SDS011;64572;50.950;3.676;2022-12-26T08:51:07;10.93;;;3.67;;
75892;SDS011;64572;50.950;3.676;2022-12-26T08:53:35;13.70;;;3.78;;
75892;SDS011;64572;50.950;3.676;2022-12-26T08:56:02;13.85;;;3.72;;
75892;SDS011;64572;50.950;3.676;2022-12-26T08:58:29;11.55;;;3.90;;
75892;SDS011;64572;50.950;3.676;2022-12-26T09:01:00;11.65;;;3.45;;
75892;SDS011;64572;50.950;3.676;2022-12-26T09:03:34;14.43;;;3.70;;
75892;SDS011;64572;50.950;3.676;2022-12-26T09:06:00;14.40;;;3.47;;
75892;SDS011;64572;50.950;3.676;2022-12-26T09:08:27;15.65;;;3.95;;
75892;SDS011;64572;50.950;3.676;2022-12-26T09:13:21;12.30;;;3.45;;
75892;SDS011;64572;50.950;3.676;2022-12-26T09:15:47;12.25;;;3.58;;
75892;SDS011;64572;50.950;3.676;2022-12-26T09:18:12;11.95;;;3.33;;
75892;SDS011;64572;50.950;3.676;2022-12-26T09:20:38;15.07;;;3.88;;
75892;SDS011;64572;50.950;3.676;2022-12-26T09:23:04;10.77;;;3.45;;
75892;SDS011;64572;50.950;3.676;2022-12-26T09:25:31;12.48;;;3.20;;
75892;SDS011;64572;50.950;3.676;2022-12-26T09:27:56;10.52;;;3.00;;
75892;SDS011;64572;50.950;3.676;2022-12-26T09:30:22;15.85;;;3.65;;
75892;SDS011;64572;50.950;3.676;2022-12-26T09:32:48;15.35;;;3.80;;
75892;SDS011;64572;50.950;3.676;2022-12-26T09:35:14;14.15;;;3.90;;
75892;SDS011;64572;50.950;3.676;2022-12-26T09:37:39;13.40;;;3.60;;
75892;SDS011;64572;50.950;3.676;2022-12-26T09:40:05;12.80;;;3.10;;
75892;SDS011;64572;50.950;3.676;2022-12-26T09:45:50;4.97;;;1.85;;
75892;SDS011;64572;50.950;3.676;2022-12-26T09:48:43;5.13;;;1.33;;
75892;SDS011;64572;50.950;3.676;2022-12-26T09:51:16;9.63;;;1.75;;
75892;SDS011;64572;50.950;3.676;2022-12-26T09:53:42;5.80;;;1.50;;
75892;SDS011;64572;50.950;3.676;2022-12-26T09:56:15;8.18;;;1.55;;
75892;SDS011;64572;50.950;3.676;2022-12-26T09:58:44;5.63;;;1.08;;
75892;SDS011;64572;50.950;3.676;2022-12-26T10:01:25;12.02;;;1.90;;
75892;SDS011;64572;50.950;3.676;2022-12-26T10:03:54;7.45;;;1.25;;
75892;SDS011;64572;50.950;3.676;2022-12-26T10:06:23;8.43;;;1.30;;
75892;SDS011;64572;50.950;3.676;2022-12-26T10:14:40;10.18;;;1.67;;
75892;SDS011;64572;50.950;3.676;2022-12-26T10:31:10;13.13;;;1.80;;
75892;SDS011;64572;50.950;3.676;2022-12-26T10:33:48;14.02;;;2.15;;
75892;SDS011;64572;50.950;3.676;2022-12-26T10:36:28;8.50;;;2.15;;
75892;SDS011;64572;50.950;3.676;2022-12-26T10:39:02;7.32;;;1.42;;
75892;SDS011;64572;50.950;3.676;2022-12-26T10:42:13;7.13;;;1.67;;
75892;SDS011;64572;50.950;3.676;2022-12-26T10:44:25;14.93;;;1.95;;
75892;SDS011;64572;50.950;3.676;2022-12-26T10:49:39;9.63;;;1.90;;
75892;SDS011;64572;50.950;3.676;2022-12-26T10:52:07;12.68;;;2.13;;
75892;SDS011;64572;50.950;3.676;2022-12-26T10:54:36;16.52;;;1.90;;
75892;SDS011;64572;50.950;3.676;2022-12-26T10:57:01;8.55;;;1.35;;
75892;SDS011;64572;50.950;3.676;2022-12-26T10:59:37;12.82;;;1.50;;
75892;SDS011;64572;50.950;3.676;2022-12-26T11:02:14;12.13;;;1.85;;
75892;SDS011;64572;50.950;3.676;2022-12-26T11:04:57;5.00;;;1.13;;
75892;SDS011;64572;50.950;3.676;2022-12-26T11:07:37;6.93;;;1.35;;
75892;SDS011;64572;50.950;3.676;2022-12-26T11:10:16;6.93;;;1.60;;
75892;SDS011;64572;50.950;3.676;2022-12-26T11:12:44;8.93;;;1.42;;
75892;SDS011;64572;50.950;3.676;2022-12-26T11:15:21;15.75;;;1.80;;
75892;SDS011;64572;50.950;3.676;2022-12-26T11:17:48;4.32;;;1.27;;
75892;SDS011;64572;50.950;3.676;2022-12-26T11:22:41;10.38;;;1.73;;
75892;SDS011;64572;50.950;3.676;2022-12-26T11:27:38;14.98;;;1.88;;
75892;SDS011;64572;50.950;3.676;2022-12-26T11:32:38;11.82;;;1.70;;
75892;SDS011;64572;50.950;3.676;2022-12-26T11:35:43;11.00;;;1.80;;
75892;SDS011;64572;50.950;3.676;2022-12-26T11:38:02;11.90;;;1.85;;
75892;SDS011;64572;50.950;3.676;2022-12-26T11:40:35;8.18;;;1.55;;
75892;SDS011;64572;50.950;3.676;2022-12-26T11:43:04;12.98;;;2.03;;
75892;SDS011;64572;50.950;3.676;2022-12-26T11:45:31;10.60;;;1.85;;
75892;SDS011;64572;50.950;3.676;2022-12-26T11:48:02;6.30;;;1.02;;
75892;SDS011;64572;50.950;3.676;2022-12-26T11:50:43;17.63;;;2.25;;
75892;SDS011;64572;50.950;3.676;2022-12-26T11:53:10;9.90;;;1.63;;
75892;SDS011;64572;50.950;3.676;2022-12-26T11:55:42;21.20;;;2.60;;
75892;SDS011;64572;50.950;3.676;2022-12-26T12:03:13;13.32;;;2.08;;
75892;SDS011;64572;50.950;3.676;2022-12-26T12:08:53;11.98;;;1.83;;
75892;SDS011;64572;50.950;3.676;2022-12-26T12:12:19;12.98;;;1.60;;
75892;SDS011;64572;50.950;3.676;2022-12-26T12:15:10;12.20;;;1.90;;
75892;SDS011;64572;50.950;3.676;2022-12-26T12:20:27;14.57;;;2.00;;
75892;SDS011;64572;50.950;3.676;2022-12-26T12:25:37;10.18;;;2.00;;
75892;SDS011;64572;50.950;3.676;2022-12-26T12:36:17;7.90;;;1.73;;
75892;SDS011;64572;50.950;3.676;2022-12-26T12:41:46;2.65;;;1.25;;
75892;SDS011;64572;50.950;3.676;2022-12-26T12:44:50;7.88;;;1.88;;
75892;SDS011;64572;50.950;3.676;2022-12-26T12:50:12;16.42;;;2.10;;
75892;SDS011;64572;50.950;3.676;2022-12-26T12:58:13;6.60;;;1.50;;
75892;SDS011;64572;50.950;3.676;2022-12-26T13:00:54;4.13;;;1.52;;
75892;SDS011;64572;50.950;3.676;2022-12-26T13:03:44;7.90;;;1.20;;
75892;SDS011;64572;50.950;3.676;2022-12-26T13:11:39;6.43;;;1.55;;
75892;SDS011;64572;50.950;3.676;2022-12-26T13:16:56;7.70;;;1.30;;
75892;SDS011;64572;50.950;3.676;2022-12-26T13:19:33;10.18;;;1.52;;
75892;SDS011;64572;50.950;3.676;2022-12-26T13:22:08;14.52;;;1.90;;
75892;SDS011;64572;50.950;3.676;2022-12-26T13:24:40;11.52;;;2.08;;
75892;SDS011;64572;50.950;3.676;2022-12-26T13:29:59;9.65;;;1.38;;
75892;SDS011;64572;50.950;3.676;2022-12-26T13:32:34;11.45;;;1.85;;
75892;SDS011;64572;50.950;3.676;2022-12-26T13:35:00;13.10;;;2.35;;
75892;SDS011;64572;50.950;3.676;2022-12-26T13:40:20;7.18;;;1.25;;
75892;SDS011;64572;50.950;3.676;2022-12-26T13:42:58;2.95;;;1.02;;
75892;SDS011;64572;50.950;3.676;2022-12-26T13:45:46;8.50;;;1.25;;
75892;SDS011;64572;50.950;3.676;2022-12-26T13:50:50;15.32;;;1.50;;
75892;SDS011;64572;50.950;3.676;2022-12-26T13:53:33;10.80;;;1.58;;
75892;SDS011;64572;50.950;3.676;2022-12-26T13:58:47;13.10;;;1.65;;
75892;SDS011;64572;50.950;3.676;2022-12-26T14:01:43;9.93;;;1.40;;
75892;SDS011;64572;50.950;3.676;2022-12-26T14:31:39;11.95;;;1.70;;
75892;SDS011;64572;50.950;3.676;2022-12-26T14:33:57;9.65;;;2.00;;
75892;SDS011;64572;50.950;3.676;2022-12-26T14:36:48;9.85;;;1.50;;
75892;SDS011;64572;50.950;3.676;2022-12-26T14:44:54;12.38;;;1.50;;
75892;SDS011;64572;50.950;3.676;2022-12-26T14:47:42;5.25;;;1.35;;
75892;SDS011;64572;50.950;3.676;2022-12-26T14:50:51;9.98;;;2.22;;
75892;SDS011;64572;50.950;3.676;2022-12-26T14:55:47;17.77;;;4.30;;
75892;SDS011;64572;50.950;3.676;2022-12-26T15:00:54;17.92;;;5.35;;
75892;SDS011;64572;50.950;3.676;2022-12-26T15:03:31;14.52;;;3.30;;
75892;SDS011;64572;50.950;3.676;2022-12-26T15:29:23;41.17;;;21.38;;
75892;SDS011;64572;50.950;3.676;2022-12-26T15:40:23;65.88;;;30.85;;
75892;SDS011;64572;50.950;3.676;2022-12-26T15:46:04;63.03;;;26.25;;
75892;SDS011;64572;50.950;3.676;2022-12-26T15:49:01;53.83;;;33.60;;
75892;SDS011;64572;50.950;3.676;2022-12-26T16:02:42;40.08;;;13.90;;
75892;SDS011;64572;50.950;3.676;2022-12-26T16:05:41;51.95;;;20.80;;
75892;SDS011;64572;50.950;3.676;2022-12-26T16:10:47;27.35;;;7.65;;
75892;SDS011;64572;50.950;3.676;2022-12-26T16:13:31;21.38;;;4.88;;
75892;SDS011;64572;50.950;3.676;2022-12-26T16:15:58;18.20;;;4.40;;
75892;SDS011;64572;50.950;3.676;2022-12-26T16:18:25;90.63;;;36.50;;
75892;SDS011;64572;50.950;3.676;2022-12-26T16:20:53;51.80;;;17.88;;
75892;SDS011;64572;50.950;3.676;2022-12-26T16:23:41;55.13;;;19.65;;
75892;SDS011;64572;50.950;3.676;2022-12-26T16:26:13;42.28;;;12.32;;
75892;SDS011;64572;50.950;3.676;2022-12-26T16:28:46;31.15;;;12.30;;
75892;SDS011;64572;50.950;3.676;2022-12-26T16:31:17;78.03;;;32.60;;
75892;SDS011;64572;50.950;3.676;2022-12-26T16:33:45;53.20;;;20.67;;
75892;SDS011;64572;50.950;3.676;2022-12-26T16:36:19;160.10;;;65.70;;
75892;SDS011;64572;50.950;3.676;2022-12-26T16:38:48;57.35;;;22.63;;
75892;SDS011;64572;50.950;3.676;2022-12-26T16:41:22;47.20;;;15.82;;
75892;SDS011;64572;50.950;3.676;2022-12-26T16:43:50;33.95;;;11.90;;
75892;SDS011;64572;50.950;3.676;2022-12-26T16:46:18;77.30;;;21.70;;
75892;SDS011;64572;50.950;3.676;2022-12-26T16:48:52;61.40;;;16.67;;
75892;SDS011;64572;50.950;3.676;2022-12-26T16:51:37;37.30;;;9.93;;
75892;SDS011;64572;50.950;3.676;2022-12-26T16:54:13;43.75;;;11.10;;
75892;SDS011;64572;50.950;3.676;2022-12-26T16:56:41;51.40;;;14.98;;
75892;SDS011;64572;50.950;3.676;2022-12-26T17:01:38;27.23;;;8.13;;
75892;SDS011;64572;50.950;3.676;2022-12-26T17:06:39;48.55;;;14.60;;
75892;SDS011;64572;50.950;3.676;2022-12-26T17:09:15;53.60;;;16.60;;
75892;SDS011;64572;50.950;3.676;2022-12-26T17:12:00;71.03;;;22.60;;
75892;SDS011;64572;50.950;3.676;2022-12-26T17:14:33;38.28;;;10.40;;
75892;SDS011;64572;50.950;3.676;2022-12-26T17:19:51;43.53;;;14.02;;
75892;SDS011;64572;50.950;3.676;2022-12-26T17:27:45;34.45;;;11.60;;
75892;SDS011;64572;50.950;3.676;2022-12-26T17:30:29;71.13;;;22.10;;
75892;SDS011;64572;50.950;3.676;2022-12-26T17:33:02;48.67;;;14.32;;
75892;SDS011;64572;50.950;3.676;2022-12-26T17:35:35;44.70;;;13.60;;
75892;SDS011;64572;50.950;3.676;2022-12-26T17:38:03;36.67;;;13.10;;
75892;SDS011;64572;50.950;3.676;2022-12-26T17:40:35;28.20;;;9.43;;
75892;SDS011;64572;50.950;3.676;2022-12-26T17:45:31;32.38;;;11.00;;
75892;SDS011;64572;50.950;3.676;2022-12-26T17:47:56;33.42;;;10.35;;
75892;SDS011;64572;50.950;3.676;2022-12-26T17:50:23;25.95;;;8.23;;
75892;SDS011;64572;50.950;3.676;2022-12-26T17:52:54;26.33;;;9.27;;
75892;SDS011;64572;50.950;3.676;2022-12-26T17:55:31;31.08;;;9.15;;
75892;SDS011;64572;50.950;3.676;2022-12-26T17:57:58;28.90;;;7.97;;
75892;SDS011;64572;50.950;3.676;2022-12-26T18:00:24;21.85;;;6.82;;
75892;SDS011;64572;50.950;3.676;2022-12-26T18:02:51;16.73;;;4.73;;
75892;SDS011;64572;50.950;3.676;2022-12-26T18:05:17;18.27;;;6.72;;
75892;SDS011;64572;50.950;3.676;2022-12-26T18:07:44;18.45;;;5.75;;
75892;SDS011;64572;50.950;3.676;2022-12-26T18:10:18;19.77;;;5.88;;
75892;SDS011;64572;50.950;3.676;2022-12-26T18:12:46;22.33;;;6.38;;
75892;SDS011;64572;50.950;3.676;2022-12-26T18:15:12;26.00;;;6.32;;
75892;SDS011;64572;50.950;3.676;2022-12-26T18:17:38;25.13;;;7.18;;
75892;SDS011;64572;50.950;3.676;2022-12-26T18:20:04;24.25;;;6.80;;
75892;SDS011;64572;50.950;3.676;2022-12-26T18:22:31;18.10;;;5.55;;
75892;SDS011;64572;50.950;3.676;2022-12-26T18:24:56;23.00;;;6.18;;
75892;SDS011;64572;50.950;3.676;2022-12-26T18:27:29;20.10;;;6.82;;
75892;SDS011;64572;50.950;3.676;2022-12-26T18:29:56;25.55;;;7.22;;
75892;SDS011;64572;50.950;3.676;2022-12-26T18:32:24;21.30;;;6.35;;
75892;SDS011;64572;50.950;3.676;2022-12-26T18:34:51;27.15;;;6.47;;
75892;SDS011;64572;50.950;3.676;2022-12-26T18:37:18;20.70;;;6.60;;
75892;SDS011;64572;50.950;3.676;2022-12-26T18:39:45;26.73;;;6.90;;
75892;SDS011;64572;50.950;3.676;2022-12-26T18:42:14;20.05;;;6.18;;
75892;SDS011;64572;50.950;3.676;2022-12-26T18:44:41;28.95;;;7.35;;
75892;SDS011;64572;50.950;3.676;2022-12-26T18:47:17;23.60;;;6.10;;
75892;SDS011;64572;50.950;3.676;2022-12-26T18:49:44;27.10;;;6.60;;
75892;SDS011;64572;50.950;3.676;2022-12-26T18:52:11;21.48;;;6.18;;
75892;SDS011;64572;50.950;3.676;2022-12-26T18:54:37;16.98;;;5.47;;
75892;SDS011;64572;50.950;3.676;2022-12-26T18:57:03;18.58;;;6.10;;
75892;SDS011;64572;50.950;3.676;2022-12-26T18:59:31;18.00;;;5.93;;
75892;SDS011;64572;50.950;3.676;2022-12-26T19:01:56;21.90;;;6.25;;
75892;SDS011;64572;50.950;3.676;2022-12-26T19:04:22;21.65;;;6.88;;
75892;SDS011;64572;50.950;3.676;2022-12-26T19:06:48;20.38;;;6.72;;
75892;SDS011;64572;50.950;3.676;2022-12-26T19:09:14;18.08;;;6.38;;
75892;SDS011;64572;50.950;3.676;2022-12-26T19:11:40;21.05;;;5.07;;
75892;SDS011;64572;50.950;3.676;2022-12-26T19:14:07;20.33;;;6.78;;
75892;SDS011;64572;50.950;3.676;2022-12-26T19:16:38;24.05;;;8.10;;
75892;SDS011;64572;50.950;3.676;2022-12-26T19:19:04;20.30;;;6.47;;